sensor_id;sensor_type;location;lat;lon;timestamp;P1;durP1;ratioP1;P2;durP2;ratioP2
51242;SDS011;37812;47.556;18.718;2022-09-09T00:00:38;8.10;;;5.32;;
51242;SDS011;37812;47.556;18.718;2022-09-09T00:03:31;8.00;;;5.55;;
51242;SDS011;37812;47.556;18.718;2022-09-09T00:06:10;9.30;;;5.00;;
51242;SDS011;37812;47.556;18.718;2022-09-09T00:09:31;7.93;;;5.40;;
51242;SDS011;37812;47.556;18.718;2022-09-09T00:14:29;8.00;;;5.50;;
51242;SDS011;37812;47.556;18.718;2022-09-09T00:20:35;8.20;;;5.28;;
51242;SDS011;37812;47.556;18.718;2022-09-09T00:23:14;8.03;;;4.83;;
51242;SDS011;37812;47.556;18.718;2022-09-09T00:28:36;7.87;;;5.07;;
51242;SDS011;37812;47.556;18.718;2022-09-09T00:31:10;8.00;;;5.40;;
51242;SDS011;37812;47.556;18.718;2022-09-09T00:33:43;7.90;;;5.00;;
51242;SDS011;37812;47.556;18.718;2022-09-09T00:36:15;8.00;;;5.03;;
51242;SDS011;37812;47.556;18.718;2022-09-09T00:38:47;7.70;;;4.68;;
51242;SDS011;37812;47.556;18.718;2022-09-09T00:41:31;8.15;;;5.28;;
51242;SDS011;37812;47.556;18.718;2022-09-09T00:44:03;8.10;;;5.10;;
51242;SDS011;37812;47.556;18.718;2022-09-09T00:46:47;8.05;;;4.87;;
51242;SDS011;37812;47.556;18.718;2022-09-09T00:52:17;8.10;;;5.00;;
51242;SDS011;37812;47.556;18.718;2022-09-09T00:55:09;7.97;;;5.20;;
51242;SDS011;37812;47.556;18.718;2022-09-09T00:57:47;7.82;;;4.97;;
51242;SDS011;37812;47.556;18.718;2022-09-09T01:05:27;8.18;;;5.32;;
51242;SDS011;37812;47.556;18.718;2022-09-09T01:08:05;7.90;;;5.00;;
51242;SDS011;37812;47.556;18.718;2022-09-09T01:10:52;7.97;;;5.07;;
51242;SDS011;37812;47.556;18.718;2022-09-09T01:13:27;8.10;;;5.20;;
51242;SDS011;37812;47.556;18.718;2022-09-09T01:15:59;7.85;;;4.90;;
51242;SDS011;37812;47.556;18.718;2022-09-09T01:18:36;7.87;;;5.07;;
51242;SDS011;37812;47.556;18.718;2022-09-09T01:26:45;8.23;;;5.00;;
51242;SDS011;37812;47.556;18.718;2022-09-09T01:29:13;7.90;;;4.90;;
51242;SDS011;37812;47.556;18.718;2022-09-09T01:31:50;8.02;;;5.20;;
51242;SDS011;37812;47.556;18.718;2022-09-09T01:34:21;7.90;;;4.90;;
51242;SDS011;37812;47.556;18.718;2022-09-09T01:37:01;8.27;;;5.47;;
51242;SDS011;37812;47.556;18.718;2022-09-09T01:39:31;7.87;;;5.07;;
51242;SDS011;37812;47.556;18.718;2022-09-09T01:42:00;8.25;;;5.30;;
51242;SDS011;37812;47.556;18.718;2022-09-09T01:44:27;7.95;;;5.20;;
51242;SDS011;37812;47.556;18.718;2022-09-09T01:46:54;8.07;;;5.37;;
51242;SDS011;37812;47.556;18.718;2022-09-09T01:49:20;8.02;;;4.80;;
51242;SDS011;37812;47.556;18.718;2022-09-09T01:51:48;7.80;;;4.90;;
51242;SDS011;37812;47.556;18.718;2022-09-09T01:54:17;8.02;;;4.80;;
51242;SDS011;37812;47.556;18.718;2022-09-09T01:57:00;7.90;;;5.10;;
51242;SDS011;37812;47.556;18.718;2022-09-09T02:02:39;7.70;;;4.75;;
51242;SDS011;37812;47.556;18.718;2022-09-09T02:07:48;7.82;;;4.85;;
51242;SDS011;37812;47.556;18.718;2022-09-09T02:13:00;7.90;;;4.80;;
51242;SDS011;37812;47.556;18.718;2022-09-09T02:15:38;8.02;;;4.62;;
51242;SDS011;37812;47.556;18.718;2022-09-09T02:18:13;15.43;;;5.28;;
51242;SDS011;37812;47.556;18.718;2022-09-09T02:20:43;7.80;;;4.90;;
51242;SDS011;37812;47.556;18.718;2022-09-09T02:23:10;8.07;;;4.70;;
51242;SDS011;37812;47.556;18.718;2022-09-09T02:25:38;8.30;;;5.57;;
51242;SDS011;37812;47.556;18.718;2022-09-09T02:28:06;7.90;;;5.00;;
51242;SDS011;37812;47.556;18.718;2022-09-09T02:30:35;8.20;;;5.50;;
51242;SDS011;37812;47.556;18.718;2022-09-09T02:33:04;8.50;;;5.62;;
51242;SDS011;37812;47.556;18.718;2022-09-09T02:35:36;8.15;;;4.80;;
51242;SDS011;37812;47.556;18.718;2022-09-09T02:38:04;8.20;;;5.22;;
51242;SDS011;37812;47.556;18.718;2022-09-09T02:40:33;8.73;;;5.07;;
51242;SDS011;37812;47.556;18.718;2022-09-09T02:42:59;8.13;;;5.25;;
51242;SDS011;37812;47.556;18.718;2022-09-09T02:45:29;8.00;;;5.10;;
51242;SDS011;37812;47.556;18.718;2022-09-09T02:48:26;8.48;;;5.03;;
51242;SDS011;37812;47.556;18.718;2022-09-09T02:53:43;7.80;;;4.78;;
51242;SDS011;37812;47.556;18.718;2022-09-09T02:56:22;8.20;;;5.50;;
51242;SDS011;37812;47.556;18.718;2022-09-09T02:58:52;7.80;;;5.00;;
51242;SDS011;37812;47.556;18.718;2022-09-09T03:01:18;8.20;;;5.40;;
51242;SDS011;37812;47.556;18.718;2022-09-09T03:03:44;7.90;;;5.00;;
51242;SDS011;37812;47.556;18.718;2022-09-09T03:06:11;8.07;;;4.87;;
51242;SDS011;37812;47.556;18.718;2022-09-09T03:08:38;7.90;;;4.90;;
51242;SDS011;37812;47.556;18.718;2022-09-09T03:11:04;8.45;;;5.25;;
51242;SDS011;37812;47.556;18.718;2022-09-09T03:13:30;8.52;;;5.30;;
51242;SDS011;37812;47.556;18.718;2022-09-09T03:15:56;7.93;;;5.12;;
51242;SDS011;37812;47.556;18.718;2022-09-09T03:18:22;8.40;;;5.40;;
51242;SDS011;37812;47.556;18.718;2022-09-09T03:20:48;8.30;;;5.20;;
51242;SDS011;37812;47.556;18.718;2022-09-09T03:23:14;8.25;;;5.10;;
51242;SDS011;37812;47.556;18.718;2022-09-09T03:25:45;8.35;;;5.53;;
51242;SDS011;37812;47.556;18.718;2022-09-09T03:28:12;8.50;;;5.65;;
51242;SDS011;37812;47.556;18.718;2022-09-09T03:30:38;7.90;;;5.10;;
51242;SDS011;37812;47.556;18.718;2022-09-09T03:33:04;8.13;;;5.65;;
51242;SDS011;37812;47.556;18.718;2022-09-09T03:35:30;8.38;;;5.50;;
51242;SDS011;37812;47.556;18.718;2022-09-09T03:37:56;8.00;;;5.15;;
51242;SDS011;37812;47.556;18.718;2022-09-09T03:40:21;8.30;;;5.60;;
51242;SDS011;37812;47.556;18.718;2022-09-09T03:42:47;8.38;;;5.50;;
51242;SDS011;37812;47.556;18.718;2022-09-09T03:45:14;7.95;;;5.30;;
51242;SDS011;37812;47.556;18.718;2022-09-09T03:47:40;8.50;;;5.53;;
51242;SDS011;37812;47.556;18.718;2022-09-09T03:50:06;8.20;;;5.57;;
51242;SDS011;37812;47.556;18.718;2022-09-09T03:52:36;7.90;;;5.30;;
51242;SDS011;37812;47.556;18.718;2022-09-09T03:55:04;9.02;;;5.00;;
51242;SDS011;37812;47.556;18.718;2022-09-09T03:57:31;8.20;;;5.45;;
51242;SDS011;37812;47.556;18.718;2022-09-09T03:59:59;8.20;;;5.40;;
51242;SDS011;37812;47.556;18.718;2022-09-09T04:02:27;7.87;;;5.00;;
51242;SDS011;37812;47.556;18.718;2022-09-09T04:04:52;8.77;;;5.30;;
51242;SDS011;37812;47.556;18.718;2022-09-09T04:07:18;8.95;;;5.20;;
51242;SDS011;37812;47.556;18.718;2022-09-09T04:09:44;8.07;;;5.45;;
51242;SDS011;37812;47.556;18.718;2022-09-09T04:12:10;8.75;;;5.78;;
51242;SDS011;37812;47.556;18.718;2022-09-09T04:14:38;8.07;;;5.28;;
51242;SDS011;37812;47.556;18.718;2022-09-09T04:17:04;8.48;;;5.35;;
51242;SDS011;37812;47.556;18.718;2022-09-09T04:19:32;7.93;;;5.10;;
51242;SDS011;37812;47.556;18.718;2022-09-09T04:21:58;8.10;;;5.18;;
51242;SDS011;37812;47.556;18.718;2022-09-09T04:24:24;8.65;;;5.28;;
51242;SDS011;37812;47.556;18.718;2022-09-09T04:26:52;8.00;;;5.20;;
51242;SDS011;37812;47.556;18.718;2022-09-09T04:29:18;7.90;;;5.10;;
51242;SDS011;37812;47.556;18.718;2022-09-09T04:31:44;8.38;;;5.20;;
51242;SDS011;37812;47.556;18.718;2022-09-09T04:34:10;8.00;;;5.22;;
51242;SDS011;37812;47.556;18.718;2022-09-09T04:36:36;7.95;;;5.20;;
51242;SDS011;37812;47.556;18.718;2022-09-09T04:39:02;8.00;;;5.00;;
51242;SDS011;37812;47.556;18.718;2022-09-09T04:41:28;8.43;;;5.22;;
51242;SDS011;37812;47.556;18.718;2022-09-09T04:43:56;7.93;;;4.90;;
51242;SDS011;37812;47.556;18.718;2022-09-09T04:46:22;8.10;;;5.30;;
51242;SDS011;37812;47.556;18.718;2022-09-09T04:48:49;7.87;;;5.12;;
51242;SDS011;37812;47.556;18.718;2022-09-09T04:51:15;7.90;;;5.00;;
51242;SDS011;37812;47.556;18.718;2022-09-09T04:53:41;8.18;;;5.10;;
51242;SDS011;37812;47.556;18.718;2022-09-09T04:56:11;8.00;;;4.97;;
51242;SDS011;37812;47.556;18.718;2022-09-09T04:58:39;8.20;;;5.62;;
51242;SDS011;37812;47.556;18.718;2022-09-09T05:03:35;8.30;;;5.12;;
51242;SDS011;37812;47.556;18.718;2022-09-09T05:06:02;8.40;;;5.12;;
51242;SDS011;37812;47.556;18.718;2022-09-09T05:08:29;8.45;;;5.22;;
51242;SDS011;37812;47.556;18.718;2022-09-09T05:10:55;8.00;;;5.10;;
51242;SDS011;37812;47.556;18.718;2022-09-09T05:13:21;8.10;;;5.30;;
51242;SDS011;37812;47.556;18.718;2022-09-09T05:15:52;8.20;;;5.32;;
51242;SDS011;37812;47.556;18.718;2022-09-09T05:18:18;7.90;;;5.12;;
51242;SDS011;37812;47.556;18.718;2022-09-09T05:20:44;9.25;;;5.22;;
51242;SDS011;37812;47.556;18.718;2022-09-09T05:23:10;8.30;;;5.07;;
51242;SDS011;37812;47.556;18.718;2022-09-09T05:25:40;8.50;;;4.80;;
51242;SDS011;37812;47.556;18.718;2022-09-09T05:28:07;8.15;;;4.87;;
51242;SDS011;37812;47.556;18.718;2022-09-09T05:30:33;9.18;;;4.97;;
51242;SDS011;37812;47.556;18.718;2022-09-09T05:32:59;8.35;;;5.15;;
51242;SDS011;37812;47.556;18.718;2022-09-09T05:35:26;8.15;;;5.25;;
51242;SDS011;37812;47.556;18.718;2022-09-09T05:37:52;7.93;;;5.10;;
51242;SDS011;37812;47.556;18.718;2022-09-09T05:40:18;8.30;;;5.25;;
51242;SDS011;37812;47.556;18.718;2022-09-09T05:42:44;8.68;;;5.28;;
51242;SDS011;37812;47.556;18.718;2022-09-09T05:45:10;8.20;;;5.40;;
51242;SDS011;37812;47.556;18.718;2022-09-09T05:47:36;8.18;;;5.40;;
51242;SDS011;37812;47.556;18.718;2022-09-09T05:50:03;8.10;;;5.10;;
51242;SDS011;37812;47.556;18.718;2022-09-09T05:52:29;8.45;;;5.22;;
51242;SDS011;37812;47.556;18.718;2022-09-09T05:54:55;8.88;;;4.90;;
51242;SDS011;37812;47.556;18.718;2022-09-09T05:57:22;8.48;;;5.43;;
51242;SDS011;37812;47.556;18.718;2022-09-09T05:59:48;8.20;;;5.37;;
51242;SDS011;37812;47.556;18.718;2022-09-09T06:02:15;8.38;;;5.80;;
51242;SDS011;37812;47.556;18.718;2022-09-09T06:04:41;8.30;;;6.25;;
51242;SDS011;37812;47.556;18.718;2022-09-09T06:07:07;8.75;;;6.53;;
51242;SDS011;37812;47.556;18.718;2022-09-09T06:09:33;10.05;;;6.37;;
51242;SDS011;37812;47.556;18.718;2022-09-09T06:11:58;9.02;;;6.28;;
51242;SDS011;37812;47.556;18.718;2022-09-09T06:14:25;9.18;;;6.40;;
51242;SDS011;37812;47.556;18.718;2022-09-09T06:16:52;8.40;;;6.20;;
51242;SDS011;37812;47.556;18.718;2022-09-09T06:19:18;8.40;;;6.18;;
51242;SDS011;37812;47.556;18.718;2022-09-09T06:21:45;8.75;;;6.45;;
51242;SDS011;37812;47.556;18.718;2022-09-09T06:24:11;8.40;;;5.90;;
51242;SDS011;37812;47.556;18.718;2022-09-09T06:26:39;8.25;;;5.55;;
51242;SDS011;37812;47.556;18.718;2022-09-09T06:29:06;8.77;;;6.22;;
51242;SDS011;37812;47.556;18.718;2022-09-09T06:31:33;8.55;;;5.95;;
51242;SDS011;37812;47.556;18.718;2022-09-09T06:34:03;8.27;;;5.90;;
51242;SDS011;37812;47.556;18.718;2022-09-09T06:36:32;8.43;;;6.30;;
51242;SDS011;37812;47.556;18.718;2022-09-09T06:39:00;8.40;;;6.32;;
51242;SDS011;37812;47.556;18.718;2022-09-09T06:41:27;8.50;;;5.97;;
51242;SDS011;37812;47.556;18.718;2022-09-09T06:43:55;8.43;;;6.07;;
51242;SDS011;37812;47.556;18.718;2022-09-09T06:46:22;8.52;;;6.35;;
51242;SDS011;37812;47.556;18.718;2022-09-09T06:48:53;8.50;;;6.30;;
51242;SDS011;37812;47.556;18.718;2022-09-09T06:51:22;8.93;;;6.40;;
51242;SDS011;37812;47.556;18.718;2022-09-09T06:53:53;8.75;;;6.85;;
51242;SDS011;37812;47.556;18.718;2022-09-09T06:58:47;9.32;;;7.30;;
51242;SDS011;37812;47.556;18.718;2022-09-09T07:01:15;8.63;;;6.70;;
51242;SDS011;37812;47.556;18.718;2022-09-09T07:03:44;8.48;;;6.30;;
51242;SDS011;37812;47.556;18.718;2022-09-09T07:06:17;8.60;;;6.12;;
51242;SDS011;37812;47.556;18.718;2022-09-09T07:08:43;8.70;;;6.00;;
51242;SDS011;37812;47.556;18.718;2022-09-09T07:11:13;8.50;;;5.45;;
51242;SDS011;37812;47.556;18.718;2022-09-09T07:13:39;8.30;;;5.72;;
51242;SDS011;37812;47.556;18.718;2022-09-09T07:16:06;8.40;;;6.00;;
51242;SDS011;37812;47.556;18.718;2022-09-09T07:18:33;8.20;;;5.50;;
51242;SDS011;37812;47.556;18.718;2022-09-09T07:21:00;8.40;;;5.70;;
51242;SDS011;37812;47.556;18.718;2022-09-09T07:23:27;8.63;;;6.30;;
51242;SDS011;37812;47.556;18.718;2022-09-09T07:25:54;8.18;;;5.97;;
51242;SDS011;37812;47.556;18.718;2022-09-09T07:28:20;8.52;;;6.25;;
51242;SDS011;37812;47.556;18.718;2022-09-09T07:30:54;8.63;;;6.30;;
51242;SDS011;37812;47.556;18.718;2022-09-09T07:33:24;8.70;;;6.50;;
51242;SDS011;37812;47.556;18.718;2022-09-09T07:35:51;8.60;;;6.57;;
51242;SDS011;37812;47.556;18.718;2022-09-09T07:38:21;8.60;;;6.22;;
51242;SDS011;37812;47.556;18.718;2022-09-09T07:40:48;8.68;;;6.60;;
51242;SDS011;37812;47.556;18.718;2022-09-09T07:43:14;8.60;;;6.80;;
51242;SDS011;37812;47.556;18.718;2022-09-09T07:45:42;8.40;;;6.50;;
51242;SDS011;37812;47.556;18.718;2022-09-09T07:48:08;8.70;;;6.55;;
51242;SDS011;37812;47.556;18.718;2022-09-09T07:50:34;8.55;;;6.30;;
51242;SDS011;37812;47.556;18.718;2022-09-09T07:53:00;8.30;;;6.40;;
51242;SDS011;37812;47.556;18.718;2022-09-09T07:55:27;8.50;;;6.50;;
51242;SDS011;37812;47.556;18.718;2022-09-09T07:57:54;8.32;;;6.30;;
51242;SDS011;37812;47.556;18.718;2022-09-09T08:00:21;8.60;;;6.47;;
51242;SDS011;37812;47.556;18.718;2022-09-09T08:02:47;8.43;;;6.35;;
51242;SDS011;37812;47.556;18.718;2022-09-09T08:05:14;8.60;;;6.70;;
51242;SDS011;37812;47.556;18.718;2022-09-09T08:07:40;8.50;;;6.57;;
51242;SDS011;37812;47.556;18.718;2022-09-09T08:10:06;9.18;;;6.80;;
51242;SDS011;37812;47.556;18.718;2022-09-09T08:12:32;8.48;;;6.43;;
51242;SDS011;37812;47.556;18.718;2022-09-09T08:14:58;8.90;;;6.60;;
51242;SDS011;37812;47.556;18.718;2022-09-09T08:17:24;8.40;;;6.53;;
51242;SDS011;37812;47.556;18.718;2022-09-09T08:19:50;8.40;;;6.20;;
51242;SDS011;37812;47.556;18.718;2022-09-09T08:22:16;8.30;;;6.15;;
51242;SDS011;37812;47.556;18.718;2022-09-09T08:24:42;8.40;;;6.55;;
51242;SDS011;37812;47.556;18.718;2022-09-09T08:27:08;8.57;;;6.50;;
51242;SDS011;37812;47.556;18.718;2022-09-09T08:29:35;8.50;;;6.50;;
51242;SDS011;37812;47.556;18.718;2022-09-09T08:32:03;8.55;;;6.53;;
51242;SDS011;37812;47.556;18.718;2022-09-09T08:34:29;9.07;;;6.80;;
51242;SDS011;37812;47.556;18.718;2022-09-09T08:36:56;8.60;;;6.47;;
51242;SDS011;37812;47.556;18.718;2022-09-09T08:39:22;8.30;;;6.40;;
51242;SDS011;37812;47.556;18.718;2022-09-09T08:47:36;8.32;;;6.40;;
51242;SDS011;37812;47.556;18.718;2022-09-09T08:50:56;8.50;;;6.80;;
51242;SDS011;37812;47.556;18.718;2022-09-09T08:53:17;8.60;;;6.70;;
51242;SDS011;37812;47.556;18.718;2022-09-09T08:56:14;8.50;;;6.70;;
51242;SDS011;37812;47.556;18.718;2022-09-09T08:58:48;8.57;;;6.62;;
51242;SDS011;37812;47.556;18.718;2022-09-09T09:12:44;8.38;;;6.50;;
51242;SDS011;37812;47.556;18.718;2022-09-09T09:15:20;8.50;;;6.60;;
51242;SDS011;37812;47.556;18.718;2022-09-09T09:17:51;10.25;;;6.57;;
51242;SDS011;37812;47.556;18.718;2022-09-09T09:20:18;8.30;;;6.30;;
51242;SDS011;37812;47.556;18.718;2022-09-09T09:22:52;8.50;;;6.60;;
51242;SDS011;37812;47.556;18.718;2022-09-09T09:25:31;8.43;;;6.50;;
51242;SDS011;37812;47.556;18.718;2022-09-09T09:30:42;8.40;;;6.10;;
51242;SDS011;37812;47.556;18.718;2022-09-09T09:33:15;8.30;;;6.20;;
51242;SDS011;37812;47.556;18.718;2022-09-09T09:35:49;8.40;;;6.15;;
51242;SDS011;37812;47.556;18.718;2022-09-09T09:38:20;8.50;;;6.40;;
51242;SDS011;37812;47.556;18.718;2022-09-09T09:40:48;12.70;;;6.20;;
51242;SDS011;37812;47.556;18.718;2022-09-09T09:43:24;8.50;;;6.10;;
51242;SDS011;37812;47.556;18.718;2022-09-09T09:45:53;8.40;;;6.22;;
51242;SDS011;37812;47.556;18.718;2022-09-09T09:48:19;8.30;;;6.20;;
51242;SDS011;37812;47.556;18.718;2022-09-09T09:50:57;8.20;;;5.97;;
51242;SDS011;37812;47.556;18.718;2022-09-09T09:53:28;8.45;;;5.80;;
51242;SDS011;37812;47.556;18.718;2022-09-09T09:55:59;8.50;;;5.90;;
51242;SDS011;37812;47.556;18.718;2022-09-09T09:58:30;8.25;;;6.15;;
51242;SDS011;37812;47.556;18.718;2022-09-09T10:00:59;8.32;;;6.15;;
51242;SDS011;37812;47.556;18.718;2022-09-09T10:03:33;8.50;;;6.25;;
51242;SDS011;37812;47.556;18.718;2022-09-09T10:06:06;8.35;;;6.12;;
51242;SDS011;37812;47.556;18.718;2022-09-09T10:08:33;8.20;;;5.85;;
51242;SDS011;37812;47.556;18.718;2022-09-09T10:14:20;8.10;;;5.68;;
51242;SDS011;37812;47.556;18.718;2022-09-09T10:22:33;8.13;;;5.65;;
51242;SDS011;37812;47.556;18.718;2022-09-09T10:27:54;7.90;;;5.25;;
51242;SDS011;37812;47.556;18.718;2022-09-09T10:33:08;7.97;;;5.30;;
51242;SDS011;37812;47.556;18.718;2022-09-09T10:35:44;7.97;;;5.37;;
51242;SDS011;37812;47.556;18.718;2022-09-09T10:38:13;8.10;;;5.53;;
51242;SDS011;37812;47.556;18.718;2022-09-09T10:41:12;7.93;;;5.28;;
51242;SDS011;37812;47.556;18.718;2022-09-09T10:46:26;8.02;;;5.35;;
51242;SDS011;37812;47.556;18.718;2022-09-09T10:51:49;8.30;;;5.30;;
51242;SDS011;37812;47.556;18.718;2022-09-09T10:57:39;8.00;;;5.50;;
51242;SDS011;37812;47.556;18.718;2022-09-09T11:00:17;8.10;;;5.35;;
51242;SDS011;37812;47.556;18.718;2022-09-09T11:02:56;8.35;;;5.50;;
51242;SDS011;37812;47.556;18.718;2022-09-09T11:05:49;8.10;;;5.45;;
51242;SDS011;37812;47.556;18.718;2022-09-09T11:08:20;8.00;;;5.40;;
51242;SDS011;37812;47.556;18.718;2022-09-09T11:10:49;7.95;;;5.20;;
51242;SDS011;37812;47.556;18.718;2022-09-09T11:13:25;8.00;;;5.37;;
51242;SDS011;37812;47.556;18.718;2022-09-09T11:15:54;8.30;;;5.30;;
51242;SDS011;37812;47.556;18.718;2022-09-09T11:18:43;7.93;;;5.12;;
51242;SDS011;37812;47.556;18.718;2022-09-09T11:21:17;7.90;;;5.20;;
51242;SDS011;37812;47.556;18.718;2022-09-09T11:23:54;8.35;;;5.62;;
51242;SDS011;37812;47.556;18.718;2022-09-09T11:26:38;8.00;;;5.50;;
51242;SDS011;37812;47.556;18.718;2022-09-09T11:34:39;8.00;;;5.40;;
51242;SDS011;37812;47.556;18.718;2022-09-09T11:40:00;9.65;;;5.80;;
51242;SDS011;37812;47.556;18.718;2022-09-09T11:42:39;8.13;;;5.43;;
51242;SDS011;37812;47.556;18.718;2022-09-09T11:45:25;8.20;;;5.50;;
51242;SDS011;37812;47.556;18.718;2022-09-09T11:47:55;9.70;;;5.62;;
51242;SDS011;37812;47.556;18.718;2022-09-09T11:52:49;8.13;;;5.70;;
51242;SDS011;37812;47.556;18.718;2022-09-09T11:55:25;7.90;;;5.28;;
51242;SDS011;37812;47.556;18.718;2022-09-09T11:58:04;8.20;;;5.60;;
51242;SDS011;37812;47.556;18.718;2022-09-09T12:00:41;8.43;;;5.62;;
51242;SDS011;37812;47.556;18.718;2022-09-09T12:06:08;8.00;;;5.40;;
51242;SDS011;37812;47.556;18.718;2022-09-09T12:08:58;8.13;;;5.60;;
51242;SDS011;37812;47.556;18.718;2022-09-09T12:11:49;8.10;;;5.53;;
51242;SDS011;37812;47.556;18.718;2022-09-09T12:14:23;8.05;;;5.45;;
51242;SDS011;37812;47.556;18.718;2022-09-09T12:19:41;8.20;;;5.80;;
51242;SDS011;37812;47.556;18.718;2022-09-09T12:24:47;8.10;;;5.70;;
51242;SDS011;37812;47.556;18.718;2022-09-09T12:27:41;8.00;;;5.50;;
51242;SDS011;37812;47.556;18.718;2022-09-09T12:33:01;8.30;;;5.40;;
51242;SDS011;37812;47.556;18.718;2022-09-09T12:35:34;8.10;;;5.20;;
51242;SDS011;37812;47.556;18.718;2022-09-09T12:38:03;7.82;;;4.95;;
51242;SDS011;37812;47.556;18.718;2022-09-09T12:40:33;8.00;;;5.10;;
51242;SDS011;37812;47.556;18.718;2022-09-09T12:43:16;8.07;;;5.00;;
51242;SDS011;37812;47.556;18.718;2022-09-09T12:45:45;7.80;;;5.00;;
51242;SDS011;37812;47.556;18.718;2022-09-09T12:48:11;7.85;;;4.90;;
51242;SDS011;37812;47.556;18.718;2022-09-09T12:50:59;7.80;;;4.53;;
51242;SDS011;37812;47.556;18.718;2022-09-09T12:53:30;7.93;;;5.10;;
51242;SDS011;37812;47.556;18.718;2022-09-09T12:56:03;7.90;;;5.18;;
51242;SDS011;37812;47.556;18.718;2022-09-09T12:58:33;7.90;;;4.85;;
51242;SDS011;37812;47.556;18.718;2022-09-09T13:01:02;7.80;;;4.72;;
51242;SDS011;37812;47.556;18.718;2022-09-09T13:03:31;8.40;;;5.25;;
51242;SDS011;37812;47.556;18.718;2022-09-09T13:06:10;7.90;;;5.00;;
51242;SDS011;37812;47.556;18.718;2022-09-09T13:08:37;7.82;;;4.82;;
51242;SDS011;37812;47.556;18.718;2022-09-09T13:11:06;8.10;;;4.97;;
51242;SDS011;37812;47.556;18.718;2022-09-09T13:13:35;7.65;;;4.60;;
51242;SDS011;37812;47.556;18.718;2022-09-09T13:16:04;7.75;;;4.60;;
51242;SDS011;37812;47.556;18.718;2022-09-09T13:18:34;7.93;;;4.97;;
51242;SDS011;37812;47.556;18.718;2022-09-09T13:21:03;9.43;;;5.10;;
51242;SDS011;37812;47.556;18.718;2022-09-09T13:23:30;7.90;;;5.00;;
51242;SDS011;37812;47.556;18.718;2022-09-09T13:26:00;7.70;;;4.60;;
51242;SDS011;37812;47.556;18.718;2022-09-09T13:28:30;7.70;;;4.70;;
51242;SDS011;37812;47.556;18.718;2022-09-09T13:31:03;7.72;;;4.78;;
51242;SDS011;37812;47.556;18.718;2022-09-09T13:33:38;8.00;;;5.10;;
51242;SDS011;37812;47.556;18.718;2022-09-09T13:41:18;7.80;;;5.05;;
51242;SDS011;37812;47.556;18.718;2022-09-09T13:43:47;7.70;;;4.80;;
51242;SDS011;37812;47.556;18.718;2022-09-09T13:46:24;8.50;;;5.30;;
51242;SDS011;37812;47.556;18.718;2022-09-09T13:48:55;8.00;;;5.28;;
51242;SDS011;37812;47.556;18.718;2022-09-09T13:51:29;7.95;;;5.07;;
51242;SDS011;37812;47.556;18.718;2022-09-09T13:54:04;8.27;;;5.40;;
51242;SDS011;37812;47.556;18.718;2022-09-09T13:56:32;7.90;;;5.28;;
51242;SDS011;37812;47.556;18.718;2022-09-09T13:59:00;7.90;;;5.30;;
51242;SDS011;37812;47.556;18.718;2022-09-09T14:01:26;8.10;;;5.30;;
51242;SDS011;37812;47.556;18.718;2022-09-09T14:03:53;7.87;;;4.75;;
51242;SDS011;37812;47.556;18.718;2022-09-09T14:06:19;7.75;;;4.72;;
51242;SDS011;37812;47.556;18.718;2022-09-09T14:08:47;7.85;;;4.93;;
51242;SDS011;37812;47.556;18.718;2022-09-09T14:11:15;7.80;;;4.90;;
51242;SDS011;37812;47.556;18.718;2022-09-09T14:13:42;8.13;;;5.10;;
51242;SDS011;37812;47.556;18.718;2022-09-09T14:16:08;7.70;;;4.78;;
51242;SDS011;37812;47.556;18.718;2022-09-09T14:18:35;8.07;;;5.15;;
51242;SDS011;37812;47.556;18.718;2022-09-09T14:21:02;7.80;;;4.80;;
51242;SDS011;37812;47.556;18.718;2022-09-09T14:23:28;7.60;;;4.60;;
51242;SDS011;37812;47.556;18.718;2022-09-09T14:25:55;7.90;;;4.90;;
51242;SDS011;37812;47.556;18.718;2022-09-09T14:28:21;8.80;;;5.18;;
51242;SDS011;37812;47.556;18.718;2022-09-09T14:30:47;8.10;;;4.78;;
51242;SDS011;37812;47.556;18.718;2022-09-09T14:33:14;7.90;;;4.93;;
51242;SDS011;37812;47.556;18.718;2022-09-09T14:35:41;7.90;;;5.00;;
51242;SDS011;37812;47.556;18.718;2022-09-09T14:38:08;9.45;;;5.10;;
51242;SDS011;37812;47.556;18.718;2022-09-09T14:40:34;7.62;;;4.60;;
51242;SDS011;37812;47.556;18.718;2022-09-09T14:43:02;7.75;;;4.60;;
51242;SDS011;37812;47.556;18.718;2022-09-09T14:45:28;7.70;;;4.75;;
51242;SDS011;37812;47.556;18.718;2022-09-09T14:47:54;7.65;;;4.62;;
51242;SDS011;37812;47.556;18.718;2022-09-09T14:50:21;7.80;;;4.87;;
51242;SDS011;37812;47.556;18.718;2022-09-09T14:52:48;7.70;;;4.70;;
51242;SDS011;37812;47.556;18.718;2022-09-09T14:55:14;7.90;;;4.90;;
51242;SDS011;37812;47.556;18.718;2022-09-09T14:57:41;7.70;;;4.72;;
51242;SDS011;37812;47.556;18.718;2022-09-09T15:00:07;7.80;;;4.87;;
51242;SDS011;37812;47.556;18.718;2022-09-09T15:02:35;8.30;;;4.90;;
51242;SDS011;37812;47.556;18.718;2022-09-09T15:05:01;7.80;;;4.93;;
51242;SDS011;37812;47.556;18.718;2022-09-09T15:07:27;7.75;;;4.80;;
51242;SDS011;37812;47.556;18.718;2022-09-09T15:09:54;7.68;;;4.50;;
51242;SDS011;37812;47.556;18.718;2022-09-09T15:12:20;8.20;;;5.15;;
51242;SDS011;37812;47.556;18.718;2022-09-09T15:14:46;7.80;;;4.80;;
51242;SDS011;37812;47.556;18.718;2022-09-09T15:17:12;8.00;;;4.90;;
51242;SDS011;37812;47.556;18.718;2022-09-09T15:19:38;7.80;;;4.78;;
51242;SDS011;37812;47.556;18.718;2022-09-09T15:22:04;8.00;;;4.80;;
51242;SDS011;37812;47.556;18.718;2022-09-09T15:24:31;7.80;;;4.80;;
51242;SDS011;37812;47.556;18.718;2022-09-09T15:26:58;7.93;;;5.00;;
51242;SDS011;37812;47.556;18.718;2022-09-09T15:29:24;7.78;;;4.95;;
51242;SDS011;37812;47.556;18.718;2022-09-09T15:31:50;7.87;;;4.62;;
51242;SDS011;37812;47.556;18.718;2022-09-09T15:34:16;7.70;;;4.72;;
51242;SDS011;37812;47.556;18.718;2022-09-09T15:36:43;7.87;;;4.97;;
51242;SDS011;37812;47.556;18.718;2022-09-09T15:39:12;7.80;;;4.72;;
51242;SDS011;37812;47.556;18.718;2022-09-09T15:41:41;7.68;;;4.62;;
51242;SDS011;37812;47.556;18.718;2022-09-09T15:44:11;8.00;;;5.10;;
51242;SDS011;37812;47.556;18.718;2022-09-09T15:49:15;7.80;;;4.90;;
51242;SDS011;37812;47.556;18.718;2022-09-09T15:51:44;7.80;;;4.80;;
51242;SDS011;37812;47.556;18.718;2022-09-09T15:54:16;7.70;;;4.65;;
51242;SDS011;37812;47.556;18.718;2022-09-09T15:56:43;9.93;;;5.30;;
51242;SDS011;37812;47.556;18.718;2022-09-09T15:59:11;7.90;;;5.00;;
51242;SDS011;37812;47.556;18.718;2022-09-09T16:01:37;7.90;;;4.90;;
51242;SDS011;37812;47.556;18.718;2022-09-09T16:04:05;7.72;;;4.80;;
51242;SDS011;37812;47.556;18.718;2022-09-09T16:06:32;8.35;;;4.75;;
51242;SDS011;37812;47.556;18.718;2022-09-09T16:08:58;7.72;;;5.00;;
51242;SDS011;37812;47.556;18.718;2022-09-09T16:11:30;7.87;;;5.07;;
51242;SDS011;37812;47.556;18.718;2022-09-09T16:13:58;8.02;;;5.00;;
51242;SDS011;37812;47.556;18.718;2022-09-09T16:16:26;7.80;;;4.80;;
51242;SDS011;37812;47.556;18.718;2022-09-09T16:18:56;7.97;;;5.00;;
51242;SDS011;37812;47.556;18.718;2022-09-09T16:21:30;7.97;;;4.80;;
51242;SDS011;37812;47.556;18.718;2022-09-09T16:23:58;7.70;;;4.50;;
51242;SDS011;37812;47.556;18.718;2022-09-09T16:26:26;7.60;;;4.47;;
51242;SDS011;37812;47.556;18.718;2022-09-09T16:28:53;7.65;;;4.57;;
51242;SDS011;37812;47.556;18.718;2022-09-09T16:31:20;8.65;;;4.70;;
51242;SDS011;37812;47.556;18.718;2022-09-09T16:33:49;8.02;;;4.60;;
51242;SDS011;37812;47.556;18.718;2022-09-09T16:36:20;7.80;;;4.85;;
51242;SDS011;37812;47.556;18.718;2022-09-09T16:38:54;7.82;;;4.60;;
51242;SDS011;37812;47.556;18.718;2022-09-09T16:41:21;7.95;;;4.60;;